createdAt,value
2023-03-26T00:01:37.775Z,9.98
2023-03-26T00:04:07.047Z,9.02
2023-03-26T00:06:38.762Z,7.05
2023-03-26T00:09:08.380Z,10.38
2023-03-26T00:11:38.311Z,8.20
2023-03-26T00:14:06.971Z,6.80
2023-03-26T00:16:35.690Z,7.88
2023-03-26T00:19:04.627Z,12.48
2023-03-26T00:21:33.284Z,10.13
2023-03-26T00:24:04.663Z,5.95
2023-03-26T00:26:33.535Z,5.47
2023-03-26T00:29:04.505Z,10.23
2023-03-26T00:31:33.273Z,7.38
2023-03-26T00:34:03.842Z,8.40
2023-03-26T00:36:35.676Z,6.75
2023-03-26T00:39:05.532Z,5.95
2023-03-26T00:41:36.968Z,10.73
2023-03-26T00:44:07.079Z,4.70
2023-03-26T00:46:36.300Z,8.50
2023-03-26T00:49:05.162Z,5.68
2023-03-26T00:51:34.916Z,5.22
2023-03-26T00:54:03.402Z,4.20
2023-03-26T00:56:31.919Z,7.90
2023-03-26T00:59:01.103Z,6.50
2023-03-26T01:01:32.349Z,5.40
2023-03-26T01:04:24.088Z,7.95
2023-03-26T01:06:52.956Z,6.97
2023-03-26T01:09:22.665Z,5.72
2023-03-26T01:11:51.570Z,7.38
2023-03-26T01:14:20.941Z,6.15
2023-03-26T01:16:54.810Z,6.43
2023-03-26T01:19:29.222Z,3.97
2023-03-26T01:21:58.125Z,4.18
2023-03-26T01:24:29.431Z,6.20
2023-03-26T01:27:05.281Z,4.40
2023-03-26T01:29:35.893Z,3.40
2023-03-26T01:32:14.698Z,5.53
2023-03-26T01:34:49.770Z,6.88
2023-03-26T01:37:21.160Z,5.65
2023-03-26T01:39:53.296Z,7.72
2023-03-26T01:42:27.141Z,4.95
2023-03-26T01:44:58.731Z,6.97
2023-03-26T01:47:27.542Z,9.98
2023-03-26T01:49:56.091Z,8.07
2023-03-26T01:52:26.630Z,6.05
2023-03-26T01:54:57.567Z,4.00
2023-03-26T01:57:31.882Z,4.25
2023-03-26T02:00:11.477Z,4.35
2023-03-26T02:02:46.602Z,4.83
2023-03-26T02:05:17.739Z,6.75
2023-03-26T02:07:50.910Z,6.53
2023-03-26T02:10:22.940Z,6.85
2023-03-26T02:12:52.258Z,6.07
2023-03-26T02:15:20.940Z,5.05
2023-03-26T02:17:49.710Z,6.80
2023-03-26T02:20:19.808Z,4.18
2023-03-26T02:22:48.848Z,5.10
2023-03-26T02:25:22.524Z,3.17
2023-03-26T02:27:53.166Z,6.90
2023-03-26T02:30:25.534Z,6.70
2023-03-26T02:32:59.115Z,5.50
2023-03-26T02:35:31.415Z,4.85
2023-03-26T02:38:02.428Z,4.80
2023-03-26T02:40:32.480Z,5.15
2023-03-26T02:43:01.260Z,7.20
2023-03-26T02:45:32.879Z,4.97
2023-03-26T02:48:08.071Z,9.30
2023-03-26T02:51:00.266Z,4.60
2023-03-26T02:53:54.723Z,10.40
2023-03-26T02:56:42.842Z,6.10
2023-03-26T02:59:25.879Z,9.95
2023-03-26T03:02:14.742Z,5.68
2023-03-26T03:04:44.007Z,5.13
2023-03-26T03:07:14.952Z,8.20
2023-03-26T03:09:43.740Z,7.55
2023-03-26T03:12:32.060Z,9.70
2023-03-26T03:15:00.574Z,7.63
2023-03-26T03:17:29.064Z,8.38
2023-03-26T03:19:57.530Z,7.30
2023-03-26T03:22:26.192Z,11.93
2023-03-26T03:24:57.717Z,8.50
2023-03-26T03:27:27.024Z,10.20
2023-03-26T03:30:05.200Z,5.50
2023-03-26T03:32:42.737Z,8.55
2023-03-26T03:35:12.532Z,7.30
2023-03-26T03:37:43.781Z,8.77
2023-03-26T03:40:12.921Z,7.93
2023-03-26T03:42:42.193Z,10.70
2023-03-26T03:45:14.180Z,7.80
2023-03-26T03:48:02.887Z,9.00
2023-03-26T03:50:41.958Z,11.20
2023-03-26T03:53:42.872Z,10.30
2023-03-26T03:56:14.662Z,9.95
2023-03-26T03:59:06.429Z,7.72
2023-03-26T04:01:38.419Z,10.93
2023-03-26T04:04:10.796Z,7.55
2023-03-26T04:06:51.472Z,5.90
2023-03-26T04:09:20.894Z,8.32
2023-03-26T04:11:50.994Z,8.25
2023-03-26T04:14:51.593Z,12.65
2023-03-26T04:17:23.345Z,6.65
2023-03-26T04:19:55.736Z,8.05
2023-03-26T04:22:34.551Z,8.75
2023-03-26T04:25:05.463Z,11.18
2023-03-26T04:27:41.904Z,10.25
2023-03-26T04:30:24.728Z,11.07
2023-03-26T04:33:06.368Z,8.88
2023-03-26T04:35:41.618Z,16.23
2023-03-26T04:38:12.591Z,7.88
2023-03-26T04:40:47.224Z,7.85
2023-03-26T04:43:42.338Z,9.82
2023-03-26T04:46:27.203Z,10.48
2023-03-26T04:49:07.607Z,6.82
2023-03-26T04:51:39.443Z,8.32
2023-03-26T04:54:18.180Z,8.93
2023-03-26T04:56:54.408Z,7.05
2023-03-26T04:59:26.123Z,6.15
2023-03-26T05:01:56.851Z,10.23
2023-03-26T05:04:34.118Z,10.77
2023-03-26T05:07:03.095Z,7.05
2023-03-26T05:09:39.282Z,8.20
2023-03-26T05:12:18.318Z,6.22
2023-03-26T05:14:58.249Z,7.15
2023-03-26T05:17:42.472Z,7.15
2023-03-26T05:20:21.697Z,9.60
2023-03-26T05:22:50.550Z,7.15
2023-03-26T05:25:29.421Z,6.80
2023-03-26T05:27:59.612Z,5.85
2023-03-26T05:30:34.626Z,8.15
2023-03-26T05:33:04.889Z,9.40
2023-03-26T05:35:44.177Z,10.18
2023-03-26T05:38:12.742Z,10.68
2023-03-26T05:40:41.260Z,6.70
2023-03-26T05:43:11.604Z,12.07
2023-03-26T05:45:49.305Z,7.97
2023-03-26T05:48:26.458Z,10.07
2023-03-26T05:50:57.630Z,8.38
2023-03-26T05:53:28.737Z,8.07
2023-03-26T05:56:32.718Z,10.63
2023-03-26T05:59:20.309Z,6.78
2023-03-26T06:02:07.181Z,11.57
2023-03-26T06:04:54.495Z,8.65
2023-03-26T06:07:38.027Z,8.93
2023-03-26T06:10:17.998Z,10.30
2023-03-26T06:12:47.554Z,9.13
2023-03-26T06:15:16.559Z,8.02
2023-03-26T06:18:07.847Z,9.52
2023-03-26T06:20:45.273Z,10.43
2023-03-26T06:23:41.248Z,6.85
2023-03-26T06:26:28.157Z,13.05
2023-03-26T06:29:10.978Z,13.10
2023-03-26T06:32:12.510Z,8.05
2023-03-26T06:35:04.191Z,10.45
2023-03-26T06:37:32.661Z,6.45
2023-03-26T06:40:04.883Z,10.23
2023-03-26T06:43:08.531Z,9.18
2023-03-26T06:45:58.042Z,9.70
2023-03-26T06:48:45.280Z,11.73
2023-03-26T06:51:19.804Z,12.35
2023-03-26T06:54:08.195Z,11.30
2023-03-26T06:56:47.560Z,11.00
2023-03-26T06:59:42.373Z,9.07
2023-03-26T07:02:29.580Z,11.43
2023-03-26T07:05:34.394Z,12.40
2023-03-26T07:08:11.929Z,9.05
2023-03-26T07:11:09.625Z,11.68
2023-03-26T07:14:14.617Z,11.32
2023-03-26T07:17:01.619Z,8.55
2023-03-26T07:19:37.807Z,13.30
2023-03-26T07:22:06.995Z,10.25
2023-03-26T07:25:11.559Z,7.65
2023-03-26T07:28:10.114Z,5.28
2023-03-26T07:31:22.018Z,7.35
2023-03-26T07:34:13.103Z,11.65
2023-03-26T07:36:50.716Z,12.18
2023-03-26T07:39:54.074Z,4.90
2023-03-26T07:42:49.410Z,8.57
2023-03-26T07:45:47.524Z,5.30
2023-03-26T07:48:47.832Z,6.55
2023-03-26T07:51:35.238Z,5.75
2023-03-26T07:54:27.599Z,8.23
2023-03-26T07:57:18.797Z,5.93
2023-03-26T08:00:08.269Z,6.57
2023-03-26T08:02:55.091Z,8.25
2023-03-26T08:06:05.387Z,5.13
2023-03-26T08:08:45.907Z,7.93
2023-03-26T08:11:39.940Z,11.73
2023-03-26T08:14:13.391Z,7.40
2023-03-26T08:16:43.698Z,9.13
2023-03-26T08:19:29.718Z,15.13
2023-03-26T08:22:01.321Z,9.88
2023-03-26T08:24:36.932Z,7.43
2023-03-26T08:27:08.644Z,9.00
2023-03-26T08:29:41.251Z,10.45
2023-03-26T08:32:14.779Z,12.40
2023-03-26T08:34:43.269Z,6.35
2023-03-26T08:37:13.092Z,10.20
2023-03-26T08:39:42.366Z,11.88
2023-03-26T08:42:28.024Z,14.20
2023-03-26T08:45:09.407Z,10.98
2023-03-26T08:47:44.483Z,10.75
2023-03-26T08:50:42.884Z,8.07
2023-03-26T08:53:29.687Z,8.75
2023-03-26T08:56:12.763Z,10.57
2023-03-26T08:59:06.399Z,14.98
2023-03-26T09:01:52.887Z,8.10
2023-03-26T09:04:39.971Z,10.95
2023-03-26T09:07:29.848Z,13.10
2023-03-26T09:10:09.086Z,11.02
2023-03-26T09:12:51.381Z,11.77
2023-03-26T09:15:37.788Z,11.68
2023-03-26T09:18:22.368Z,10.15
2023-03-26T09:21:05.574Z,13.20
2023-03-26T09:23:52.821Z,11.30
2023-03-26T09:26:31.523Z,9.32
2023-03-26T09:29:19.972Z,9.57
2023-03-26T09:32:09.449Z,13.45
2023-03-26T09:34:46.417Z,10.85
2023-03-26T09:37:27.586Z,14.30
2023-03-26T09:40:05.059Z,15.88
2023-03-26T09:42:39.367Z,12.05
2023-03-26T09:45:21.092Z,15.93
2023-03-26T09:48:10.779Z,12.35
2023-03-26T09:50:44.522Z,7.45
2023-03-26T09:53:38.655Z,7.78
2023-03-26T09:56:13.413Z,15.82
2023-03-26T09:58:56.619Z,11.43
2023-03-26T10:01:33.323Z,15.93
2023-03-26T10:04:08.852Z,13.05
2023-03-26T10:06:52.474Z,9.45
2023-03-26T10:09:34.374Z,17.17
2023-03-26T10:12:07.834Z,12.18
2023-03-26T10:14:40.746Z,16.92
2023-03-26T10:17:25.707Z,20.52
2023-03-26T10:19:59.010Z,17.40
2023-03-26T10:22:38.788Z,12.25
2023-03-26T10:25:17.433Z,12.50
2023-03-26T10:27:50.709Z,17.50
2023-03-26T10:30:45.813Z,13.18
2023-03-26T10:33:16.855Z,14.52
2023-03-26T10:35:49.081Z,17.55
2023-03-26T10:38:26.323Z,12.45
2023-03-26T10:41:00.660Z,18.48
2023-03-26T10:43:39.007Z,18.60
2023-03-26T10:46:26.298Z,18.38
2023-03-26T10:49:14.794Z,10.52
2023-03-26T10:51:48.717Z,16.67
2023-03-26T10:54:22.987Z,18.02
2023-03-26T10:56:53.038Z,18.13
2023-03-26T10:59:21.568Z,15.98
2023-03-26T11:02:03.341Z,14.73
2023-03-26T11:04:35.650Z,10.10
2023-03-26T11:07:08.551Z,15.50
2023-03-26T11:09:40.848Z,19.92
2023-03-26T11:12:25.640Z,23.73
2023-03-26T11:14:57.979Z,14.05
2023-03-26T11:17:40.582Z,22.27
2023-03-26T11:20:12.692Z,20.45
2023-03-26T11:22:47.948Z,16.00
2023-03-26T11:25:34.760Z,13.48
2023-03-26T11:28:21.737Z,15.30
2023-03-26T11:30:55.319Z,11.25
2023-03-26T11:33:27.634Z,12.98
2023-03-26T11:36:03.688Z,14.15
2023-03-26T11:38:37.504Z,16.70
2023-03-26T11:41:13.088Z,16.88
2023-03-26T11:43:53.819Z,11.88
2023-03-26T11:46:23.700Z,14.48
2023-03-26T11:48:57.476Z,18.88
2023-03-26T11:51:29.118Z,13.75
2023-03-26T11:53:57.770Z,15.68
2023-03-26T11:56:29.294Z,11.35
2023-03-26T11:59:01.353Z,13.63
2023-03-26T12:01:31.402Z,13.02
2023-03-26T12:04:07.209Z,9.63
2023-03-26T12:06:36.172Z,12.45
2023-03-26T12:09:04.841Z,11.43
2023-03-26T12:11:36.030Z,13.45
2023-03-26T12:14:05.756Z,15.30
2023-03-26T12:16:36.430Z,14.95
2023-03-26T12:19:08.151Z,13.63
2023-03-26T12:21:45.427Z,11.82
2023-03-26T12:24:26.491Z,10.73
2023-03-26T12:26:58.521Z,14.18
2023-03-26T12:29:27.865Z,13.80
2023-03-26T12:31:57.600Z,8.05
2023-03-26T12:34:34.614Z,9.65
2023-03-26T12:37:03.709Z,8.13
2023-03-26T12:40:10.777Z,9.93
2023-03-26T12:44:47.836Z,10.95
2023-03-26T12:45:22.200Z,14.35
2023-03-26T12:48:01.001Z,7.50
2023-03-26T12:50:38.001Z,13.38
2023-03-26T12:53:19.207Z,16.58
2023-03-26T12:55:53.912Z,8.07
2023-03-26T12:58:38.223Z,9.90
2023-03-26T13:01:11.352Z,11.35
2023-03-26T13:03:46.876Z,11.38
2023-03-26T13:06:31.438Z,10.98
2023-03-26T13:09:35.958Z,11.48
2023-03-26T13:12:10.250Z,10.45
2023-03-26T13:14:53.648Z,10.40
2023-03-26T13:17:25.493Z,7.45
2023-03-26T13:19:58.364Z,7.95
2023-03-26T13:22:32.098Z,7.30
2023-03-26T13:25:09.834Z,10.50
2023-03-26T13:27:46.557Z,10.40
2023-03-26T13:30:25.468Z,11.07
2023-03-26T13:33:01.191Z,8.23
2023-03-26T13:35:33.684Z,9.25
2023-03-26T13:38:08.317Z,13.77
2023-03-26T13:40:43.015Z,10.25
2023-03-26T13:43:22.865Z,9.90
2023-03-26T13:46:01.539Z,10.60
2023-03-26T13:48:31.984Z,14.13
2023-03-26T13:51:05.545Z,12.38
2023-03-26T13:53:39.388Z,9.25
2023-03-26T13:56:09.557Z,7.60
2023-03-26T13:58:40.594Z,10.10
2023-03-26T14:01:11.516Z,6.78
2023-03-26T14:03:47.907Z,7.53
2023-03-26T14:06:24.921Z,6.65
2023-03-26T14:08:58.204Z,7.25
2023-03-26T14:11:36.122Z,9.77
2023-03-26T14:14:08.799Z,7.95
2023-03-26T14:16:38.712Z,6.13
2023-03-26T14:19:15.636Z,10.50
2023-03-26T14:21:51.819Z,5.70
2023-03-26T14:24:31.144Z,4.57
2023-03-26T14:27:04.725Z,7.05
2023-03-26T14:29:40.451Z,6.07
2023-03-26T14:32:32.482Z,7.85
2023-03-26T14:35:06.143Z,9.65
2023-03-26T14:37:49.676Z,7.78
2023-03-26T14:40:33.056Z,6.38
2023-03-26T14:43:18.433Z,6.25
2023-03-26T14:45:51.561Z,7.85
2023-03-26T14:48:34.478Z,10.00
2023-03-26T14:51:07.320Z,10.68
2023-03-26T14:56:20.869Z,7.50
2023-03-26T14:59:19.313Z,14.68
2023-03-26T15:02:01.223Z,10.40
2023-03-26T15:04:54.033Z,7.40
2023-03-26T15:07:31.339Z,18.88
2023-03-26T15:10:22.498Z,12.60
2023-03-26T15:13:00.425Z,8.35
2023-03-26T15:15:54.160Z,8.00
2023-03-26T15:18:41.519Z,11.40
2023-03-26T15:21:31.294Z,4.97
2023-03-26T15:24:18.886Z,11.07
2023-03-26T15:27:01.563Z,5.72
2023-03-26T15:29:48.175Z,6.47
2023-03-26T15:32:30.404Z,10.43
2023-03-26T15:35:21.525Z,5.60
2023-03-26T15:38:14.891Z,14.43
2023-03-26T15:40:54.563Z,8.35
2023-03-26T15:43:23.348Z,7.45
2023-03-26T15:45:54.982Z,7.50
2023-03-26T15:48:34.249Z,10.93
2023-03-26T15:51:16.948Z,11.55
2023-03-26T15:53:49.013Z,8.85
2023-03-26T15:56:32.937Z,15.20
2023-03-26T15:59:05.182Z,10.05
2023-03-26T16:01:39.712Z,16.10
2023-03-26T16:04:15.070Z,8.27
2023-03-26T16:06:51.059Z,8.85
2023-03-26T16:09:30.801Z,10.45
2023-03-26T16:12:01.461Z,9.25
2023-03-26T16:14:43.598Z,10.80
2023-03-26T16:17:14.610Z,10.90
2023-03-26T16:19:56.997Z,8.73
2023-03-26T16:22:42.522Z,9.38
2023-03-26T16:25:27.155Z,12.13
2023-03-26T16:28:16.980Z,8.15
2023-03-26T16:31:10.637Z,5.88
2023-03-26T16:34:00.152Z,13.77
2023-03-26T16:36:34.475Z,16.17
2023-03-26T16:39:18.703Z,14.65
2023-03-26T16:41:57.059Z,9.70
2023-03-26T16:44:39.366Z,11.30
2023-03-26T16:49:45.882Z,7.05
2023-03-26T16:52:24.067Z,11.95
2023-03-26T16:54:56.139Z,9.70
2023-03-26T16:57:27.920Z,10.27
2023-03-26T17:00:14.637Z,9.33
2023-03-26T17:02:49.778Z,7.65
2023-03-26T17:05:22.341Z,6.22
2023-03-26T17:07:54.969Z,12.80
2023-03-26T17:10:33.806Z,6.82
2023-03-26T17:13:06.067Z,9.30
2023-03-26T17:15:38.468Z,9.32
2023-03-26T17:18:17.572Z,9.32
2023-03-26T17:20:55.832Z,9.50
2023-03-26T17:23:30.427Z,9.05
2023-03-26T17:26:06.502Z,10.38
2023-03-26T17:28:52.091Z,9.73
2023-03-26T17:31:26.539Z,10.35
2023-03-26T17:33:55.464Z,9.95
2023-03-26T17:36:43.745Z,10.95
2023-03-26T17:39:24.431Z,9.77
2023-03-26T17:42:10.866Z,18.92
2023-03-26T17:44:43.889Z,11.10
2023-03-26T17:47:19.905Z,9.85
2023-03-26T17:49:49.320Z,12.00
2023-03-26T17:52:23.973Z,10.82
2023-03-26T17:54:58.004Z,8.00
2023-03-26T17:57:28.242Z,11.85
2023-03-26T18:00:01.500Z,8.48
2023-03-26T18:02:42.148Z,13.75
2023-03-26T18:05:13.178Z,9.88
2023-03-26T18:07:59.173Z,11.60
2023-03-26T18:10:57.143Z,8.55
2023-03-26T18:13:41.843Z,13.30
2023-03-26T18:16:14.814Z,12.80
2023-03-26T18:18:47.818Z,8.73
2023-03-26T18:21:22.890Z,13.32
2023-03-26T18:23:53.435Z,13.60
2023-03-26T18:26:33.743Z,21.67
2023-03-26T18:29:12.194Z,13.93
2023-03-26T18:31:44.791Z,13.70
2023-03-26T18:34:14.991Z,9.20
2023-03-26T18:36:43.818Z,10.38
2023-03-26T18:39:15.178Z,10.90
2023-03-26T18:41:47.092Z,12.55
2023-03-26T18:44:17.434Z,10.77
2023-03-26T18:46:46.622Z,9.40
2023-03-26T18:49:16.507Z,12.75
2023-03-26T18:51:56.843Z,15.90
2023-03-26T18:54:31.292Z,17.40
2023-03-26T18:57:01.324Z,15.00
2023-03-26T18:59:32.126Z,19.35
2023-03-26T19:02:01.498Z,15.18
2023-03-26T19:04:31.216Z,15.60
2023-03-26T19:07:01.922Z,14.23
2023-03-26T19:09:35.081Z,14.25
2023-03-26T19:12:07.171Z,15.52
2023-03-26T19:14:37.052Z,16.53
2023-03-26T19:17:07.427Z,28.30
2023-03-26T19:19:37.746Z,14.57
2023-03-26T19:22:07.487Z,13.07
2023-03-26T19:24:37.535Z,19.05
2023-03-26T19:27:06.567Z,17.58
2023-03-26T19:29:36.526Z,14.10
2023-03-26T19:32:06.706Z,13.23
2023-03-26T19:34:36.648Z,12.55
2023-03-26T19:37:18.773Z,15.53
2023-03-26T19:39:49.526Z,14.25
2023-03-26T19:42:20.159Z,18.50
2023-03-26T19:44:50.248Z,25.38
2023-03-26T19:47:22.075Z,12.07
2023-03-26T19:49:55.110Z,22.30
2023-03-26T19:52:27.576Z,15.82
2023-03-26T19:55:04.224Z,15.20
2023-03-26T19:57:34.743Z,13.40
2023-03-26T20:00:13.527Z,15.20
2023-03-26T20:02:47.461Z,17.52
2023-03-26T20:05:18.846Z,13.68
2023-03-26T20:07:50.175Z,21.52
2023-03-26T20:10:23.161Z,30.42
2023-03-26T20:12:52.010Z,15.30
2023-03-26T20:15:24.529Z,55.05
2023-03-26T20:17:54.510Z,18.98
2023-03-26T20:20:24.689Z,19.13
2023-03-26T20:22:54.606Z,16.83
2023-03-26T20:25:26.060Z,14.95
2023-03-26T20:27:56.610Z,22.65
2023-03-26T20:30:36.975Z,24.92
2023-03-26T20:33:12.366Z,19.17
2023-03-26T20:35:43.088Z,17.23
2023-03-26T20:38:11.991Z,21.50
2023-03-26T20:40:42.320Z,25.17
2023-03-26T20:43:14.027Z,24.73
2023-03-26T20:45:46.136Z,18.95
2023-03-26T20:48:15.125Z,23.60
2023-03-26T20:50:50.712Z,23.30
2023-03-26T20:53:21.974Z,21.98
2023-03-26T20:55:52.438Z,29.13
2023-03-26T20:58:31.088Z,24.35
2023-03-26T21:01:02.450Z,17.67
2023-03-26T21:03:31.282Z,22.73
2023-03-26T21:06:04.082Z,30.42
2023-03-26T21:11:06.998Z,23.55
2023-03-26T21:13:38.687Z,30.88
2023-03-26T21:16:10.825Z,26.40
2023-03-26T21:18:39.725Z,25.43
2023-03-26T21:21:21.574Z,28.02
2023-03-26T21:23:59.268Z,21.73
2023-03-26T21:26:32.127Z,18.58
2023-03-26T21:29:02.304Z,24.10
2023-03-26T21:31:36.690Z,23.25
2023-03-26T21:34:08.526Z,24.25
2023-03-26T21:36:37.727Z,23.73
2023-03-26T21:39:07.032Z,26.23
2023-03-26T21:41:44.248Z,35.40
2023-03-26T21:44:14.497Z,22.65
2023-03-26T21:46:46.032Z,19.50
2023-03-26T21:49:16.196Z,19.00
2023-03-26T21:51:45.505Z,21.80
2023-03-26T21:54:24.499Z,19.63
2023-03-26T21:57:06.037Z,19.17
2023-03-26T21:59:38.578Z,26.77
2023-03-26T22:04:40.245Z,21.20
2023-03-26T22:07:13.567Z,21.95
2023-03-26T22:09:43.395Z,20.85
2023-03-26T22:12:13.865Z,17.80
2023-03-26T22:14:42.627Z,20.63
2023-03-26T22:17:11.772Z,19.48
2023-03-26T22:19:40.380Z,19.85
2023-03-26T22:22:09.112Z,16.67
2023-03-26T22:24:40.423Z,22.30
2023-03-26T22:27:16.299Z,21.35
2023-03-26T22:29:48.694Z,14.02
2023-03-26T22:32:18.255Z,20.65
2023-03-26T22:34:49.436Z,20.52
2023-03-26T22:37:18.912Z,18.00
2023-03-26T22:39:48.005Z,16.92
2023-03-26T22:42:17.140Z,16.20
2023-03-26T22:44:47.595Z,20.83
2023-03-26T22:47:17.504Z,20.13
2023-03-26T22:49:48.246Z,21.42
2023-03-26T22:52:18.665Z,15.38
2023-03-26T22:54:55.038Z,21.42
2023-03-26T22:57:24.087Z,22.65
2023-03-26T22:59:54.039Z,19.70
2023-03-26T23:02:25.459Z,21.40
2023-03-26T23:04:54.557Z,14.77
2023-03-26T23:07:23.475Z,13.63
2023-03-26T23:09:53.011Z,19.00
2023-03-26T23:12:21.870Z,16.48
2023-03-26T23:14:53.140Z,13.70
2023-03-26T23:17:23.891Z,21.23
2023-03-26T23:19:57.514Z,23.48
2023-03-26T23:22:29.643Z,11.93
2023-03-26T23:25:01.145Z,14.57
2023-03-26T23:27:30.461Z,10.45
2023-03-26T23:30:01.927Z,11.23
2023-03-26T23:32:31.868Z,14.88
2023-03-26T23:35:03.101Z,12.15
2023-03-26T23:37:35.396Z,14.98
2023-03-26T23:40:07.725Z,16.85
2023-03-26T23:42:37.224Z,10.77
2023-03-26T23:45:06.200Z,10.48
2023-03-26T23:47:37.455Z,14.05
2023-03-26T23:50:08.736Z,8.68
2023-03-26T23:52:38.479Z,7.43
2023-03-26T23:55:08.210Z,16.80
2023-03-26T23:57:37.057Z,18.83
